CAT,Max TemperatureF,Mean TemperatureF,Min TemperatureF,Max Dew PointF,MeanDew PointF,Min DewpointF,Max Humidity, Mean Humidity, Min Humidity, Max Sea Level PressureIn, Mean Sea Level PressureIn, Min Sea Level PressureIn, Max VisibilityMiles, Mean VisibilityMiles, Min VisibilityMiles, Max Wind SpeedMPH, Mean Wind SpeedMPH, Max Gust SpeedMPH,PrecipitationIn, CloudCover, Events, WindDirDegrees
2011-10-1,86,73,59,55,51,46,88,50,29,30.15,30.02,29.89,6,6,6,22,11,41,0.00,3,Rain-Thunderstorm,72
2011-10-2,86,73,60,59,50,36,88,52,21,30.04,29.94,29.83,6,6,6,18,10,28,0.00,2,Thunderstorm,17
2011-10-3,82,66,50,37,28,18,58,27,9,30.09,30.03,29.95,6,6,6,15,8,22,0.00,2,,214
2011-10-4,80,63,46,37,30,25,62,30,14,30.15,30.06,29.98,,,,9,6,,0.00,,,245
2011-10-5,82,64,46,41,33,23,66,34,11,30.18,30.11,30.06,6,6,6,15,5,25,0.00,2,,177
2011-10-6,71,63,55,48,41,37,77,46,31,30.48,30.38,30.33,6,6,6,17,12,25,0.00,6,,51
2011-10-7,78,63,48,45,36,28,82,42,17,30.42,30.35,30.27,,,,13,8,,0.00,,,72
2011-10-8,84,67,50,37,31,21,58,29,10,30.33,30.25,30.18,,,,14,7,,0.00,,,84
2011-10-9,86,70,53,37,30,25,34,23,13,30.33,30.23,30.15,6,6,6,13,6,,0.00,1,,114
2011-10-10,87,71,55,43,37,32,54,31,14,30.30,30.20,30.09,6,6,6,12,6,,0.00,1,,87
2011-10-11,87,72,57,43,39,34,55,32,15,30.27,30.12,30.01,6,6,6,10,6,,0.00,1,,44
2011-10-12,89,72,55,41,36,27,58,29,10,30.12,30.03,29.95,6,6,6,10,4,,0.00,1,,82
2011-10-13,91,75,59,45,37,27,48,28,10,30.09,30.01,29.95,6,6,6,13,7,,0.00,1,,74
2011-10-14,89,74,60,39,36,30,45,25,13,30.12,30.02,29.95,,,,15,9,,0.00,,,61
2011-10-15,93,76,59,43,37,28,48,26,11,30.06,29.98,29.89,6,6,6,13,7,,0.00,2,,64
2011-10-16,96,78,59,32,21,9,36,15,4,30.01,29.94,29.86,,,,18,7,30,0.00,,,228
2011-10-17,91,74,57,57,42,18,60,33,20,29.98,29.89,29.77,6,6,6,15,9,26,0.00,1,,61
2011-10-18,89,76,64,64,57,52,73,54,29,30.09,29.84,29.71,6,6,6,20,13,,0.00,3,Thunderstorm,55
2011-10-19,89,76,64,63,46,23,88,44,14,29.95,29.81,29.74,6,6,6,20,9,32,0.00,4,,295
2011-10-20,80,68,55,32,25,16,36,20,9,30.09,30.02,29.92,,,,24,14,,0.00,,,189
2011-10-21,84,66,48,50,36,21,49,30,19,30.09,30.03,29.95,6,6,6,16,8,,0.00,1,,49
2011-10-22,93,76,59,52,44,34,72,36,12,30.06,29.97,29.86,,,,14,7,,0.00,,,69
2011-10-23,102,83,64,43,37,32,40,22,9,30.01,29.92,29.86,6,6,6,17,6,,0.00,1,,199
2011-10-24,104,83,62,37,32,27,39,17,7,30.24,29.89,29.80,6,6,6,10,4,,0.00,2,,224
2011-10-25,98,90,82,37,31,19,18,13,9,29.86,29.78,29.68,6,6,6,16,7,23,0.00,6,,178
2011-10-26,98,84,69,34,31,27,27,15,10,29.92,29.78,29.68,6,6,6,10,6,43,0.00,2,,220
2011-10-27,96,84,71,61,46,30,69,30,14,30.01,29.90,29.80,6,6,6,16,7,,0.00,3,,112
2011-10-28,95,80,66,66,60,52,88,66,23,30.01,29.96,29.83,6,6,6,17,7,30,0.00,2,Rain-Thunderstorm,82
2011-10-29,89,78,66,64,60,54,88,61,29,30.04,29.95,29.86,6,6,6,17,9,,0.00,2,,67
2011-10-30,93,81,69,63,53,41,78,43,19,29.98,29.90,29.80,6,6,6,20,9,31,0.00,1,Thunderstorm,291
2011-10-31,91,80,69,54,43,23,53,30,13,29.95,29.91,29.86,6,6,6,16,8,,0.00,4,,218